sensor_id;sensor_type;location;lat;lon;timestamp;P1;durP1;ratioP1;P2;durP2;ratioP2
26953;SDS011;14508;50.924;11.600;2022-10-23T00:00:15;15.32;;;6.47;;
26953;SDS011;14508;50.924;11.600;2022-10-23T00:02:43;18.02;;;7.10;;
26953;SDS011;14508;50.924;11.600;2022-10-23T00:05:16;22.00;;;6.30;;
26953;SDS011;14508;50.924;11.600;2022-10-23T00:07:44;22.17;;;6.35;;
26953;SDS011;14508;50.924;11.600;2022-10-23T00:10:14;16.70;;;7.10;;
26953;SDS011;14508;50.924;11.600;2022-10-23T00:12:41;14.70;;;6.32;;
26953;SDS011;14508;50.924;11.600;2022-10-23T00:15:08;10.95;;;5.70;;
26953;SDS011;14508;50.924;11.600;2022-10-23T00:17:36;14.75;;;6.82;;
26953;SDS011;14508;50.924;11.600;2022-10-23T00:20:05;12.25;;;6.03;;
26953;SDS011;14508;50.924;11.600;2022-10-23T00:22:33;17.17;;;6.10;;
26953;SDS011;14508;50.924;11.600;2022-10-23T00:25:00;20.00;;;6.38;;
26953;SDS011;14508;50.924;11.600;2022-10-23T00:27:27;20.73;;;6.03;;
26953;SDS011;14508;50.924;11.600;2022-10-23T00:29:54;10.93;;;5.15;;
26953;SDS011;14508;50.924;11.600;2022-10-23T00:32:21;13.73;;;5.10;;
26953;SDS011;14508;50.924;11.600;2022-10-23T00:34:47;13.23;;;5.28;;
26953;SDS011;14508;50.924;11.600;2022-10-23T00:37:16;15.07;;;5.63;;
26953;SDS011;14508;50.924;11.600;2022-10-23T00:39:42;9.38;;;5.15;;
26953;SDS011;14508;50.924;11.600;2022-10-23T00:42:09;15.88;;;5.50;;
26953;SDS011;14508;50.924;11.600;2022-10-23T00:47:35;14.15;;;5.07;;
26953;SDS011;14508;50.924;11.600;2022-10-23T00:50:02;9.52;;;4.97;;
26953;SDS011;14508;50.924;11.600;2022-10-23T00:52:31;13.30;;;5.68;;
26953;SDS011;14508;50.924;11.600;2022-10-23T00:55:00;8.70;;;5.45;;
26953;SDS011;14508;50.924;11.600;2022-10-23T00:57:27;16.67;;;5.85;;
26953;SDS011;14508;50.924;11.600;2022-10-23T00:59:54;13.55;;;5.55;;
26953;SDS011;14508;50.924;11.600;2022-10-23T01:02:22;11.05;;;5.72;;
26953;SDS011;14508;50.924;11.600;2022-10-23T01:04:48;9.30;;;5.43;;
26953;SDS011;14508;50.924;11.600;2022-10-23T01:07:16;11.18;;;5.60;;
26953;SDS011;14508;50.924;11.600;2022-10-23T01:09:53;12.43;;;5.47;;
26953;SDS011;14508;50.924;11.600;2022-10-23T01:12:31;14.90;;;5.88;;
26953;SDS011;14508;50.924;11.600;2022-10-23T01:15:05;13.05;;;5.28;;
26953;SDS011;14508;50.924;11.600;2022-10-23T01:17:40;16.00;;;6.18;;
26953;SDS011;14508;50.924;11.600;2022-10-23T01:20:13;13.10;;;6.10;;
26953;SDS011;14508;50.924;11.600;2022-10-23T01:23:03;14.93;;;5.25;;
26953;SDS011;14508;50.924;11.600;2022-10-23T01:25:47;9.38;;;6.10;;
26953;SDS011;14508;50.924;11.600;2022-10-23T01:28:29;16.15;;;6.03;;
26953;SDS011;14508;50.924;11.600;2022-10-23T01:31:01;9.23;;;5.53;;
26953;SDS011;14508;50.924;11.600;2022-10-23T01:33:34;11.70;;;5.78;;
26953;SDS011;14508;50.924;11.600;2022-10-23T01:36:07;12.38;;;6.05;;
26953;SDS011;14508;50.924;11.600;2022-10-23T01:38:38;16.58;;;6.15;;
26953;SDS011;14508;50.924;11.600;2022-10-23T01:41:19;9.43;;;5.97;;
26953;SDS011;14508;50.924;11.600;2022-10-23T01:43:54;11.63;;;5.53;;
26953;SDS011;14508;50.924;11.600;2022-10-23T01:46:28;18.45;;;5.45;;
26953;SDS011;14508;50.924;11.600;2022-10-23T01:48:57;10.13;;;5.68;;
26953;SDS011;14508;50.924;11.600;2022-10-23T01:51:26;15.07;;;6.07;;
26953;SDS011;14508;50.924;11.600;2022-10-23T01:54:00;15.50;;;5.60;;
26953;SDS011;14508;50.924;11.600;2022-10-23T01:56:41;9.38;;;5.15;;
26953;SDS011;14508;50.924;11.600;2022-10-23T01:59:24;18.73;;;5.82;;
26953;SDS011;14508;50.924;11.600;2022-10-23T02:01:57;12.87;;;5.57;;
26953;SDS011;14508;50.924;11.600;2022-10-23T02:04:26;18.10;;;5.15;;
26953;SDS011;14508;50.924;11.600;2022-10-23T02:06:58;15.82;;;5.05;;
26953;SDS011;14508;50.924;11.600;2022-10-23T02:09:25;17.20;;;5.43;;
26953;SDS011;14508;50.924;11.600;2022-10-23T02:11:53;9.80;;;4.75;;
26953;SDS011;14508;50.924;11.600;2022-10-23T02:14:34;10.82;;;5.10;;
26953;SDS011;14508;50.924;11.600;2022-10-23T02:17:08;12.50;;;4.88;;
26953;SDS011;14508;50.924;11.600;2022-10-23T02:19:42;10.60;;;5.13;;
26953;SDS011;14508;50.924;11.600;2022-10-23T02:22:13;9.40;;;4.85;;
26953;SDS011;14508;50.924;11.600;2022-10-23T02:24:48;7.57;;;4.60;;
26953;SDS011;14508;50.924;11.600;2022-10-23T02:27:19;41.08;;;5.72;;
26953;SDS011;14508;50.924;11.600;2022-10-23T02:29:54;10.70;;;4.03;;
26953;SDS011;14508;50.924;11.600;2022-10-23T02:32:25;9.65;;;4.95;;
26953;SDS011;14508;50.924;11.600;2022-10-23T02:34:54;23.83;;;4.78;;
26953;SDS011;14508;50.924;11.600;2022-10-23T02:37:21;70.68;;;6.43;;
26953;SDS011;14508;50.924;11.600;2022-10-23T02:39:49;56.05;;;6.00;;
26953;SDS011;14508;50.924;11.600;2022-10-23T02:42:17;28.52;;;5.28;;
26953;SDS011;14508;50.924;11.600;2022-10-23T02:44:55;104.50;;;8.00;;
26953;SDS011;14508;50.924;11.600;2022-10-23T02:47:31;30.75;;;5.53;;
26953;SDS011;14508;50.924;11.600;2022-10-23T02:50:07;159.93;;;8.40;;
26953;SDS011;14508;50.924;11.600;2022-10-23T02:52:44;28.35;;;5.22;;
26953;SDS011;14508;50.924;11.600;2022-10-23T02:55:21;25.42;;;5.40;;
26953;SDS011;14508;50.924;11.600;2022-10-23T02:57:54;68.63;;;7.05;;
26953;SDS011;14508;50.924;11.600;2022-10-23T03:00:26;37.50;;;5.55;;
26953;SDS011;14508;50.924;11.600;2022-10-23T03:02:57;27.00;;;5.28;;
26953;SDS011;14508;50.924;11.600;2022-10-23T03:05:29;31.13;;;5.90;;
26953;SDS011;14508;50.924;11.600;2022-10-23T03:07:58;16.70;;;5.03;;
26953;SDS011;14508;50.924;11.600;2022-10-23T03:10:25;36.47;;;5.75;;
26953;SDS011;14508;50.924;11.600;2022-10-23T03:12:51;22.58;;;5.25;;
26953;SDS011;14508;50.924;11.600;2022-10-23T03:15:19;25.38;;;4.18;;
26953;SDS011;14508;50.924;11.600;2022-10-23T03:17:49;32.47;;;5.22;;
26953;SDS011;14508;50.924;11.600;2022-10-23T03:20:16;88.18;;;6.20;;
26953;SDS011;14508;50.924;11.600;2022-10-23T03:22:44;30.13;;;4.53;;
26953;SDS011;14508;50.924;11.600;2022-10-23T03:25:11;24.17;;;4.53;;
26953;SDS011;14508;50.924;11.600;2022-10-23T03:27:38;59.08;;;5.32;;
26953;SDS011;14508;50.924;11.600;2022-10-23T03:30:08;12.63;;;4.93;;
26953;SDS011;14508;50.924;11.600;2022-10-23T03:32:38;26.00;;;4.00;;
26953;SDS011;14508;50.924;11.600;2022-10-23T03:35:06;24.35;;;4.68;;
26953;SDS011;14508;50.924;11.600;2022-10-23T03:37:33;16.67;;;3.67;;
26953;SDS011;14508;50.924;11.600;2022-10-23T03:40:00;23.63;;;4.18;;
26953;SDS011;14508;50.924;11.600;2022-10-23T03:42:32;18.95;;;4.38;;
26953;SDS011;14508;50.924;11.600;2022-10-23T03:44:59;16.33;;;4.20;;
26953;SDS011;14508;50.924;11.600;2022-10-23T03:47:26;7.10;;;3.88;;
26953;SDS011;14508;50.924;11.600;2022-10-23T03:49:56;18.95;;;4.38;;
26953;SDS011;14508;50.924;11.600;2022-10-23T03:52:24;36.83;;;4.85;;
26953;SDS011;14508;50.924;11.600;2022-10-23T03:54:51;16.60;;;3.97;;
26953;SDS011;14508;50.924;11.600;2022-10-23T03:57:18;52.15;;;5.43;;
26953;SDS011;14508;50.924;11.600;2022-10-23T03:59:45;11.32;;;3.65;;
26953;SDS011;14508;50.924;11.600;2022-10-23T04:02:11;7.03;;;3.50;;
26953;SDS011;14508;50.924;11.600;2022-10-23T04:04:38;12.00;;;3.83;;
26953;SDS011;14508;50.924;11.600;2022-10-23T04:07:05;6.38;;;3.22;;
26953;SDS011;14508;50.924;11.600;2022-10-23T04:09:33;12.00;;;2.90;;
26953;SDS011;14508;50.924;11.600;2022-10-23T04:12:02;13.95;;;2.72;;
26953;SDS011;14508;50.924;11.600;2022-10-23T04:14:29;13.93;;;3.85;;
26953;SDS011;14508;50.924;11.600;2022-10-23T04:16:56;7.95;;;3.03;;
26953;SDS011;14508;50.924;11.600;2022-10-23T04:19:23;8.98;;;3.15;;
26953;SDS011;14508;50.924;11.600;2022-10-23T04:21:53;12.25;;;2.92;;
26953;SDS011;14508;50.924;11.600;2022-10-23T04:24:21;9.68;;;2.88;;
26953;SDS011;14508;50.924;11.600;2022-10-23T04:26:49;16.38;;;3.08;;
26953;SDS011;14508;50.924;11.600;2022-10-23T04:29:17;22.90;;;3.20;;
26953;SDS011;14508;50.924;11.600;2022-10-23T04:31:48;9.00;;;3.25;;
26953;SDS011;14508;50.924;11.600;2022-10-23T04:34:15;56.63;;;5.53;;
26953;SDS011;14508;50.924;11.600;2022-10-23T04:36:43;13.63;;;4.13;;
26953;SDS011;14508;50.924;11.600;2022-10-23T04:39:09;7.13;;;3.42;;
26953;SDS011;14508;50.924;11.600;2022-10-23T04:41:37;18.02;;;3.25;;
26953;SDS011;14508;50.924;11.600;2022-10-23T04:44:05;15.13;;;3.70;;
26953;SDS011;14508;50.924;11.600;2022-10-23T04:46:36;106.90;;;6.18;;
26953;SDS011;14508;50.924;11.600;2022-10-23T04:49:03;9.80;;;2.92;;
26953;SDS011;14508;50.924;11.600;2022-10-23T04:51:45;14.10;;;4.20;;
26953;SDS011;14508;50.924;11.600;2022-10-23T04:54:38;5.03;;;3.42;;
26953;SDS011;14508;50.924;11.600;2022-10-23T04:57:23;8.13;;;3.80;;
26953;SDS011;14508;50.924;11.600;2022-10-23T04:59:57;4.18;;;3.08;;
26953;SDS011;14508;50.924;11.600;2022-10-23T05:02:24;13.65;;;3.63;;
26953;SDS011;14508;50.924;11.600;2022-10-23T05:04:52;10.02;;;3.17;;
26953;SDS011;14508;50.924;11.600;2022-10-23T05:07:31;24.08;;;4.03;;
26953;SDS011;14508;50.924;11.600;2022-10-23T05:10:22;60.55;;;4.82;;
26953;SDS011;14508;50.924;11.600;2022-10-23T05:13:10;23.80;;;3.95;;
26953;SDS011;14508;50.924;11.600;2022-10-23T05:15:40;16.88;;;4.10;;
26953;SDS011;14508;50.924;11.600;2022-10-23T05:18:08;20.73;;;3.75;;
26953;SDS011;14508;50.924;11.600;2022-10-23T05:20:37;171.48;;;8.75;;
26953;SDS011;14508;50.924;11.600;2022-10-23T05:23:09;46.40;;;4.45;;
26953;SDS011;14508;50.924;11.600;2022-10-23T05:25:53;58.78;;;4.85;;
26953;SDS011;14508;50.924;11.600;2022-10-23T05:28:20;84.32;;;5.80;;
26953;SDS011;14508;50.924;11.600;2022-10-23T05:30:48;53.42;;;5.00;;
26953;SDS011;14508;50.924;11.600;2022-10-23T05:33:16;46.90;;;4.00;;
26953;SDS011;14508;50.924;11.600;2022-10-23T05:35:43;36.10;;;4.50;;
26953;SDS011;14508;50.924;11.600;2022-10-23T05:38:12;32.63;;;4.00;;
26953;SDS011;14508;50.924;11.600;2022-10-23T05:40:41;21.13;;;2.88;;
26953;SDS011;14508;50.924;11.600;2022-10-23T05:43:13;23.58;;;3.20;;
26953;SDS011;14508;50.924;11.600;2022-10-23T05:45:47;4.78;;;2.45;;
26953;SDS011;14508;50.924;11.600;2022-10-23T05:48:30;7.53;;;2.35;;
26953;SDS011;14508;50.924;11.600;2022-10-23T05:51:15;2.45;;;1.98;;
26953;SDS011;14508;50.924;11.600;2022-10-23T05:53:53;3.08;;;2.40;;
26953;SDS011;14508;50.924;11.600;2022-10-23T05:56:31;6.90;;;2.10;;
26953;SDS011;14508;50.924;11.600;2022-10-23T05:59:07;4.82;;;2.08;;
26953;SDS011;14508;50.924;11.600;2022-10-23T06:01:50;10.07;;;2.53;;
26953;SDS011;14508;50.924;11.600;2022-10-23T06:04:28;1.92;;;1.80;;
26953;SDS011;14508;50.924;11.600;2022-10-23T06:07:22;3.33;;;2.22;;
26953;SDS011;14508;50.924;11.600;2022-10-23T06:09:51;9.00;;;2.40;;
26953;SDS011;14508;50.924;11.600;2022-10-23T06:12:19;7.50;;;2.80;;
26953;SDS011;14508;50.924;11.600;2022-10-23T06:14:48;5.65;;;2.53;;
26953;SDS011;14508;50.924;11.600;2022-10-23T06:17:16;8.35;;;2.58;;
26953;SDS011;14508;50.924;11.600;2022-10-23T06:19:45;5.55;;;2.70;;
26953;SDS011;14508;50.924;11.600;2022-10-23T06:22:15;8.15;;;2.78;;
26953;SDS011;14508;50.924;11.600;2022-10-23T06:24:53;15.95;;;3.53;;
26953;SDS011;14508;50.924;11.600;2022-10-23T06:27:24;15.52;;;4.38;;
26953;SDS011;14508;50.924;11.600;2022-10-23T06:29:52;6.68;;;3.30;;
26953;SDS011;14508;50.924;11.600;2022-10-23T06:32:20;8.20;;;3.58;;
26953;SDS011;14508;50.924;11.600;2022-10-23T06:35:00;7.05;;;3.03;;
26953;SDS011;14508;50.924;11.600;2022-10-23T06:37:27;6.20;;;2.60;;
26953;SDS011;14508;50.924;11.600;2022-10-23T06:40:04;11.77;;;3.35;;
26953;SDS011;14508;50.924;11.600;2022-10-23T06:42:51;10.32;;;2.88;;
26953;SDS011;14508;50.924;11.600;2022-10-23T06:45:41;15.95;;;8.27;;
26953;SDS011;14508;50.924;11.600;2022-10-23T06:48:12;11.00;;;5.35;;
26953;SDS011;14508;50.924;11.600;2022-10-23T06:50:53;26.75;;;9.77;;
26953;SDS011;14508;50.924;11.600;2022-10-23T06:53:28;12.25;;;4.93;;
26953;SDS011;14508;50.924;11.600;2022-10-23T06:56:05;6.88;;;3.25;;
26953;SDS011;14508;50.924;11.600;2022-10-23T06:58:35;9.18;;;3.47;;
26953;SDS011;14508;50.924;11.600;2022-10-23T07:01:12;7.93;;;3.15;;
26953;SDS011;14508;50.924;11.600;2022-10-23T07:03:42;27.92;;;4.78;;
26953;SDS011;14508;50.924;11.600;2022-10-23T07:06:10;10.35;;;4.38;;
26953;SDS011;14508;50.924;11.600;2022-10-23T07:08:37;22.60;;;3.90;;
26953;SDS011;14508;50.924;11.600;2022-10-23T07:11:22;16.05;;;3.97;;
26953;SDS011;14508;50.924;11.600;2022-10-23T07:13:49;5.40;;;3.05;;
26953;SDS011;14508;50.924;11.600;2022-10-23T07:16:20;5.35;;;3.20;;
26953;SDS011;14508;50.924;11.600;2022-10-23T07:18:53;10.43;;;3.33;;
26953;SDS011;14508;50.924;11.600;2022-10-23T07:21:26;15.98;;;4.47;;
26953;SDS011;14508;50.924;11.600;2022-10-23T07:24:04;5.80;;;3.08;;
26953;SDS011;14508;50.924;11.600;2022-10-23T07:26:34;7.60;;;3.35;;
26953;SDS011;14508;50.924;11.600;2022-10-23T07:29:01;4.72;;;3.33;;
26953;SDS011;14508;50.924;11.600;2022-10-23T07:31:29;16.65;;;7.10;;
26953;SDS011;14508;50.924;11.600;2022-10-23T07:34:32;7.82;;;3.53;;
26953;SDS011;14508;50.924;11.600;2022-10-23T07:37:18;21.45;;;13.18;;
26953;SDS011;14508;50.924;11.600;2022-10-23T07:39:45;9.02;;;4.07;;
26953;SDS011;14508;50.924;11.600;2022-10-23T07:42:12;6.45;;;4.05;;
26953;SDS011;14508;50.924;11.600;2022-10-23T07:44:40;6.13;;;3.50;;
26953;SDS011;14508;50.924;11.600;2022-10-23T07:47:07;6.20;;;3.78;;
26953;SDS011;14508;50.924;11.600;2022-10-23T07:49:36;7.65;;;3.53;;
26953;SDS011;14508;50.924;11.600;2022-10-23T07:52:03;17.88;;;6.85;;
26953;SDS011;14508;50.924;11.600;2022-10-23T07:54:49;6.25;;;4.38;;
26953;SDS011;14508;50.924;11.600;2022-10-23T07:57:20;6.65;;;4.45;;
26953;SDS011;14508;50.924;11.600;2022-10-23T07:59:53;10.23;;;6.53;;
26953;SDS011;14508;50.924;11.600;2022-10-23T08:02:22;5.65;;;3.92;;
26953;SDS011;14508;50.924;11.600;2022-10-23T08:04:50;7.43;;;4.03;;
26953;SDS011;14508;50.924;11.600;2022-10-23T08:07:29;9.05;;;4.15;;
26953;SDS011;14508;50.924;11.600;2022-10-23T08:09:56;10.23;;;4.15;;
26953;SDS011;14508;50.924;11.600;2022-10-23T08:12:24;16.23;;;8.85;;
26953;SDS011;14508;50.924;11.600;2022-10-23T08:14:52;11.23;;;3.08;;
26953;SDS011;14508;50.924;11.600;2022-10-23T08:17:21;6.43;;;2.78;;
26953;SDS011;14508;50.924;11.600;2022-10-23T08:20:15;5.32;;;3.72;;
26953;SDS011;14508;50.924;11.600;2022-10-23T08:22:44;9.02;;;3.25;;
26953;SDS011;14508;50.924;11.600;2022-10-23T08:25:16;8.40;;;3.65;;
26953;SDS011;14508;50.924;11.600;2022-10-23T08:27:43;5.45;;;2.83;;
26953;SDS011;14508;50.924;11.600;2022-10-23T08:30:11;4.25;;;2.85;;
26953;SDS011;14508;50.924;11.600;2022-10-23T08:32:39;7.68;;;3.78;;
26953;SDS011;14508;50.924;11.600;2022-10-23T08:35:07;4.18;;;3.08;;
26953;SDS011;14508;50.924;11.600;2022-10-23T08:37:37;5.55;;;3.20;;
26953;SDS011;14508;50.924;11.600;2022-10-23T08:40:04;4.75;;;3.00;;
26953;SDS011;14508;50.924;11.600;2022-10-23T08:42:52;5.63;;;2.88;;
26953;SDS011;14508;50.924;11.600;2022-10-23T08:45:27;7.80;;;3.58;;
26953;SDS011;14508;50.924;11.600;2022-10-23T08:48:09;3.67;;;2.85;;
26953;SDS011;14508;50.924;11.600;2022-10-23T08:51:04;5.78;;;2.65;;
26953;SDS011;14508;50.924;11.600;2022-10-23T08:53:37;13.55;;;6.35;;
26953;SDS011;14508;50.924;11.600;2022-10-23T08:56:12;9.32;;;3.20;;
26953;SDS011;14508;50.924;11.600;2022-10-23T08:58:46;5.25;;;2.78;;
26953;SDS011;14508;50.924;11.600;2022-10-23T09:01:33;3.72;;;2.85;;
26953;SDS011;14508;50.924;11.600;2022-10-23T09:04:03;5.57;;;2.90;;
26953;SDS011;14508;50.924;11.600;2022-10-23T09:06:34;3.58;;;2.38;;
26953;SDS011;14508;50.924;11.600;2022-10-23T09:09:13;4.22;;;2.95;;
26953;SDS011;14508;50.924;11.600;2022-10-23T09:11:52;5.88;;;2.70;;
26953;SDS011;14508;50.924;11.600;2022-10-23T09:14:29;5.03;;;3.10;;
26953;SDS011;14508;50.924;11.600;2022-10-23T09:17:09;5.53;;;3.20;;
26953;SDS011;14508;50.924;11.600;2022-10-23T09:19:42;4.57;;;2.58;;
26953;SDS011;14508;50.924;11.600;2022-10-23T09:22:12;7.30;;;3.47;;
26953;SDS011;14508;50.924;11.600;2022-10-23T09:24:42;5.80;;;3.55;;
26953;SDS011;14508;50.924;11.600;2022-10-23T09:27:09;10.55;;;3.75;;
26953;SDS011;14508;50.924;11.600;2022-10-23T09:29:45;8.10;;;3.28;;
26953;SDS011;14508;50.924;11.600;2022-10-23T09:32:14;10.48;;;3.58;;
26953;SDS011;14508;50.924;11.600;2022-10-23T09:34:49;6.43;;;3.05;;
26953;SDS011;14508;50.924;11.600;2022-10-23T09:37:19;11.00;;;4.72;;
26953;SDS011;14508;50.924;11.600;2022-10-23T09:39:58;9.27;;;2.72;;
26953;SDS011;14508;50.924;11.600;2022-10-23T09:42:27;11.15;;;3.40;;
26953;SDS011;14508;50.924;11.600;2022-10-23T09:44:53;4.10;;;2.83;;
26953;SDS011;14508;50.924;11.600;2022-10-23T09:47:22;9.60;;;3.97;;
26953;SDS011;14508;50.924;11.600;2022-10-23T09:49:50;5.90;;;2.50;;
26953;SDS011;14508;50.924;11.600;2022-10-23T09:52:22;5.43;;;2.72;;
26953;SDS011;14508;50.924;11.600;2022-10-23T09:54:56;4.13;;;2.63;;
26953;SDS011;14508;50.924;11.600;2022-10-23T09:57:27;3.35;;;1.90;;
26953;SDS011;14508;50.924;11.600;2022-10-23T09:59:56;4.53;;;1.90;;
26953;SDS011;14508;50.924;11.600;2022-10-23T10:02:26;3.47;;;2.22;;
26953;SDS011;14508;50.924;11.600;2022-10-23T10:05:20;5.47;;;1.65;;
26953;SDS011;14508;50.924;11.600;2022-10-23T10:07:55;2.95;;;1.63;;
26953;SDS011;14508;50.924;11.600;2022-10-23T10:10:27;3.88;;;2.17;;
26953;SDS011;14508;50.924;11.600;2022-10-23T10:13:00;7.20;;;1.80;;
26953;SDS011;14508;50.924;11.600;2022-10-23T10:15:35;5.85;;;1.90;;
26953;SDS011;14508;50.924;11.600;2022-10-23T10:18:12;3.85;;;1.42;;
26953;SDS011;14508;50.924;11.600;2022-10-23T10:20:49;9.77;;;1.73;;
26953;SDS011;14508;50.924;11.600;2022-10-23T10:23:25;5.57;;;1.65;;
26953;SDS011;14508;50.924;11.600;2022-10-23T10:26:01;3.42;;;1.88;;
26953;SDS011;14508;50.924;11.600;2022-10-23T10:28:54;7.38;;;1.73;;
26953;SDS011;14508;50.924;11.600;2022-10-23T10:31:34;4.05;;;1.70;;
26953;SDS011;14508;50.924;11.600;2022-10-23T10:34:10;2.00;;;1.52;;
26953;SDS011;14508;50.924;11.600;2022-10-23T10:36:45;5.03;;;2.00;;
26953;SDS011;14508;50.924;11.600;2022-10-23T10:39:23;3.92;;;1.83;;
26953;SDS011;14508;50.924;11.600;2022-10-23T10:42:11;4.72;;;1.52;;
26953;SDS011;14508;50.924;11.600;2022-10-23T10:45:03;8.00;;;2.00;;
26953;SDS011;14508;50.924;11.600;2022-10-23T10:47:44;4.28;;;2.38;;
26953;SDS011;14508;50.924;11.600;2022-10-23T10:50:25;6.45;;;1.90;;
26953;SDS011;14508;50.924;11.600;2022-10-23T10:53:12;5.47;;;2.10;;
26953;SDS011;14508;50.924;11.600;2022-10-23T10:55:45;4.50;;;2.15;;
26953;SDS011;14508;50.924;11.600;2022-10-23T10:58:17;3.38;;;1.60;;
26953;SDS011;14508;50.924;11.600;2022-10-23T11:00:49;2.97;;;1.70;;
26953;SDS011;14508;50.924;11.600;2022-10-23T11:03:26;6.63;;;3.35;;
26953;SDS011;14508;50.924;11.600;2022-10-23T11:06:00;2.85;;;1.90;;
26953;SDS011;14508;50.924;11.600;2022-10-23T11:08:31;19.23;;;2.40;;
26953;SDS011;14508;50.924;11.600;2022-10-23T11:11:02;3.92;;;1.83;;
26953;SDS011;14508;50.924;11.600;2022-10-23T11:13:34;7.32;;;1.63;;
26953;SDS011;14508;50.924;11.600;2022-10-23T11:16:04;2.20;;;1.75;;
26953;SDS011;14508;50.924;11.600;2022-10-23T11:18:36;2.65;;;1.42;;
26953;SDS011;14508;50.924;11.600;2022-10-23T11:21:09;6.40;;;2.08;;
26953;SDS011;14508;50.924;11.600;2022-10-23T11:23:56;5.88;;;1.85;;
26953;SDS011;14508;50.924;11.600;2022-10-23T11:26:38;7.13;;;1.98;;
26953;SDS011;14508;50.924;11.600;2022-10-23T11:29:17;4.65;;;2.42;;
26953;SDS011;14508;50.924;11.600;2022-10-23T11:32:01;5.03;;;2.30;;
26953;SDS011;14508;50.924;11.600;2022-10-23T11:34:51;5.13;;;1.75;;
26953;SDS011;14508;50.924;11.600;2022-10-23T11:37:29;7.72;;;2.45;;
26953;SDS011;14508;50.924;11.600;2022-10-23T11:40:00;4.20;;;2.03;;
26953;SDS011;14508;50.924;11.600;2022-10-23T11:42:45;3.85;;;1.80;;
26953;SDS011;14508;50.924;11.600;2022-10-23T11:47:59;5.63;;;1.58;;
26953;SDS011;14508;50.924;11.600;2022-10-23T11:50:29;3.65;;;1.90;;
26953;SDS011;14508;50.924;11.600;2022-10-23T11:52:59;3.67;;;1.65;;
26953;SDS011;14508;50.924;11.600;2022-10-23T11:55:31;3.45;;;1.60;;
26953;SDS011;14508;50.924;11.600;2022-10-23T11:58:09;3.33;;;1.85;;
26953;SDS011;14508;50.924;11.600;2022-10-23T12:00:51;4.43;;;2.17;;
26953;SDS011;14508;50.924;11.600;2022-10-23T12:03:27;3.22;;;1.75;;
26953;SDS011;14508;50.924;11.600;2022-10-23T12:06:02;7.35;;;1.90;;
26953;SDS011;14508;50.924;11.600;2022-10-23T12:08:33;4.07;;;1.95;;
26953;SDS011;14508;50.924;11.600;2022-10-23T12:11:03;6.75;;;1.67;;
26953;SDS011;14508;50.924;11.600;2022-10-23T12:13:42;4.70;;;2.05;;
26953;SDS011;14508;50.924;11.600;2022-10-23T12:16:12;6.50;;;1.50;;
26953;SDS011;14508;50.924;11.600;2022-10-23T12:18:49;6.50;;;1.60;;
26953;SDS011;14508;50.924;11.600;2022-10-23T12:21:22;4.55;;;1.65;;
26953;SDS011;14508;50.924;11.600;2022-10-23T12:26:52;3.17;;;1.48;;
26953;SDS011;14508;50.924;11.600;2022-10-23T12:29:28;3.15;;;1.13;;
26953;SDS011;14508;50.924;11.600;2022-10-23T12:32:14;6.05;;;1.05;;
26953;SDS011;14508;50.924;11.600;2022-10-23T12:34:56;4.95;;;1.88;;
26953;SDS011;14508;50.924;11.600;2022-10-23T12:37:44;6.35;;;1.02;;
26953;SDS011;14508;50.924;11.600;2022-10-23T12:40:20;8.23;;;1.17;;
26953;SDS011;14508;50.924;11.600;2022-10-23T12:42:54;2.30;;;1.13;;
26953;SDS011;14508;50.924;11.600;2022-10-23T12:45:22;5.60;;;0.95;;
26953;SDS011;14508;50.924;11.600;2022-10-23T12:47:52;4.35;;;1.63;;
26953;SDS011;14508;50.924;11.600;2022-10-23T12:50:20;4.03;;;1.15;;
26953;SDS011;14508;50.924;11.600;2022-10-23T12:52:49;5.13;;;1.48;;
26953;SDS011;14508;50.924;11.600;2022-10-23T12:55:17;3.88;;;1.15;;
26953;SDS011;14508;50.924;11.600;2022-10-23T12:57:44;2.00;;;1.40;;
26953;SDS011;14508;50.924;11.600;2022-10-23T13:00:17;1.48;;;1.00;;
26953;SDS011;14508;50.924;11.600;2022-10-23T13:02:45;1.23;;;1.02;;
26953;SDS011;14508;50.924;11.600;2022-10-23T13:05:23;6.70;;;1.10;;
26953;SDS011;14508;50.924;11.600;2022-10-23T13:07:51;3.22;;;1.02;;
26953;SDS011;14508;50.924;11.600;2022-10-23T13:10:27;2.28;;;1.10;;
26953;SDS011;14508;50.924;11.600;2022-10-23T13:13:01;8.20;;;1.67;;
26953;SDS011;14508;50.924;11.600;2022-10-23T13:15:36;6.45;;;1.20;;
26953;SDS011;14508;50.924;11.600;2022-10-23T13:18:05;1.98;;;1.30;;
26953;SDS011;14508;50.924;11.600;2022-10-23T13:20:33;1.38;;;1.10;;
26953;SDS011;14508;50.924;11.600;2022-10-23T13:23:07;2.15;;;1.08;;
26953;SDS011;14508;50.924;11.600;2022-10-23T13:25:36;5.32;;;1.20;;
26953;SDS011;14508;50.924;11.600;2022-10-23T13:28:16;1.60;;;1.17;;
26953;SDS011;14508;50.924;11.600;2022-10-23T13:31:05;4.53;;;1.05;;
26953;SDS011;14508;50.924;11.600;2022-10-23T13:33:50;2.58;;;0.82;;
26953;SDS011;14508;50.924;11.600;2022-10-23T13:36:29;2.20;;;1.20;;
26953;SDS011;14508;50.924;11.600;2022-10-23T13:38:59;1.50;;;0.85;;
26953;SDS011;14508;50.924;11.600;2022-10-23T13:41:28;7.88;;;1.20;;
26953;SDS011;14508;50.924;11.600;2022-10-23T13:44:00;1.35;;;0.98;;
26953;SDS011;14508;50.924;11.600;2022-10-23T13:46:27;2.97;;;0.95;;
26953;SDS011;14508;50.924;11.600;2022-10-23T13:48:55;5.35;;;1.00;;
26953;SDS011;14508;50.924;11.600;2022-10-23T13:51:23;3.03;;;1.17;;
26953;SDS011;14508;50.924;11.600;2022-10-23T13:53:53;3.95;;;1.25;;
26953;SDS011;14508;50.924;11.600;2022-10-23T13:56:21;3.08;;;1.13;;
26953;SDS011;14508;50.924;11.600;2022-10-23T13:58:49;3.17;;;1.00;;
26953;SDS011;14508;50.924;11.600;2022-10-23T14:01:19;2.55;;;0.90;;
26953;SDS011;14508;50.924;11.600;2022-10-23T14:03:48;1.38;;;1.02;;
26953;SDS011;14508;50.924;11.600;2022-10-23T14:06:17;8.07;;;1.20;;
26953;SDS011;14508;50.924;11.600;2022-10-23T14:08:44;5.80;;;1.92;;
26953;SDS011;14508;50.924;11.600;2022-10-23T14:11:12;5.45;;;1.30;;
26953;SDS011;14508;50.924;11.600;2022-10-23T14:13:40;1.85;;;1.08;;
26953;SDS011;14508;50.924;11.600;2022-10-23T14:16:08;3.50;;;1.30;;
26953;SDS011;14508;50.924;11.600;2022-10-23T14:18:37;5.07;;;1.30;;
26953;SDS011;14508;50.924;11.600;2022-10-23T14:21:04;5.90;;;1.40;;
26953;SDS011;14508;50.924;11.600;2022-10-23T14:23:34;5.47;;;1.55;;
26953;SDS011;14508;50.924;11.600;2022-10-23T14:26:01;2.75;;;1.38;;
26953;SDS011;14508;50.924;11.600;2022-10-23T14:28:28;5.53;;;1.65;;
26953;SDS011;14508;50.924;11.600;2022-10-23T14:30:54;4.07;;;1.40;;
26953;SDS011;14508;50.924;11.600;2022-10-23T14:33:21;3.10;;;1.38;;
26953;SDS011;14508;50.924;11.600;2022-10-23T14:35:48;6.85;;;1.65;;
26953;SDS011;14508;50.924;11.600;2022-10-23T14:38:15;2.20;;;1.33;;
26953;SDS011;14508;50.924;11.600;2022-10-23T14:40:43;2.28;;;1.40;;
26953;SDS011;14508;50.924;11.600;2022-10-23T14:43:10;6.57;;;1.52;;
26953;SDS011;14508;50.924;11.600;2022-10-23T14:45:37;2.15;;;1.27;;
26953;SDS011;14508;50.924;11.600;2022-10-23T14:48:04;4.30;;;1.45;;
26953;SDS011;14508;50.924;11.600;2022-10-23T14:50:32;2.33;;;1.40;;
26953;SDS011;14508;50.924;11.600;2022-10-23T14:53:00;4.65;;;1.58;;
26953;SDS011;14508;50.924;11.600;2022-10-23T14:55:27;3.65;;;1.40;;
26953;SDS011;14508;50.924;11.600;2022-10-23T14:57:55;5.88;;;1.88;;
26953;SDS011;14508;50.924;11.600;2022-10-23T15:00:22;5.43;;;1.88;;
26953;SDS011;14508;50.924;11.600;2022-10-23T15:02:49;3.83;;;2.10;;
26953;SDS011;14508;50.924;11.600;2022-10-23T15:05:16;3.88;;;1.90;;
26953;SDS011;14508;50.924;11.600;2022-10-23T15:07:43;3.53;;;1.92;;